createdAt,value
2018-09-21T00:00:27.075Z,22.50
2018-09-21T00:02:54.704Z,22.60
2018-09-21T00:05:26.087Z,22.40
2018-09-21T00:07:53.594Z,22.50
2018-09-21T00:10:21.054Z,22.30
2018-09-21T00:12:48.492Z,22.60
2018-09-21T00:15:16.093Z,22.50
2018-09-21T00:17:43.683Z,22.40
2018-09-21T00:20:11.319Z,22.40
2018-09-21T00:22:39.058Z,22.50
2018-09-21T00:25:06.682Z,22.50
2018-09-21T00:27:34.260Z,22.40
2018-09-21T00:30:02.563Z,22.50
2018-09-21T00:32:30.280Z,22.40
2018-09-21T00:34:58.028Z,22.40
2018-09-21T00:37:25.670Z,22.40
2018-09-21T00:39:53.310Z,22.40
2018-09-21T00:42:20.905Z,22.40
2018-09-21T00:44:48.423Z,22.40
2018-09-21T00:47:16.130Z,22.50
2018-09-21T00:49:43.799Z,22.30
2018-09-21T00:52:11.403Z,22.40
2018-09-21T00:54:38.948Z,22.40
2018-09-21T00:57:06.413Z,22.40
2018-09-21T00:59:34.047Z,22.50
2018-09-21T01:02:01.596Z,22.40
2018-09-21T01:04:34.506Z,22.40
2018-09-21T01:07:04.246Z,22.50
2018-09-21T01:09:31.886Z,22.50
2018-09-21T01:11:59.444Z,22.50
2018-09-21T01:14:26.976Z,22.50
2018-09-21T01:16:54.414Z,22.50
2018-09-21T01:19:24.662Z,22.50
2018-09-21T01:21:52.121Z,22.50
2018-09-21T01:24:19.789Z,22.60
2018-09-21T01:26:47.410Z,22.50
2018-09-21T01:29:15.019Z,22.60
2018-09-21T01:31:45.711Z,22.60
2018-09-21T01:34:13.411Z,22.60
2018-09-21T01:36:41.642Z,22.60
2018-09-21T01:39:10.138Z,22.50
2018-09-21T01:41:37.552Z,22.50
2018-09-21T01:44:05.380Z,22.50
2018-09-21T01:46:32.897Z,22.50
2018-09-21T01:49:00.646Z,22.50
2018-09-21T01:51:28.220Z,22.40
2018-09-21T01:53:55.670Z,22.40
2018-09-21T01:56:23.214Z,22.40
2018-09-21T01:58:52.418Z,22.40
2018-09-21T02:01:20.108Z,22.50
2018-09-21T02:03:48.476Z,22.40
2018-09-21T02:06:16.145Z,22.50
2018-09-21T02:08:43.839Z,22.40
2018-09-21T02:11:11.456Z,22.40
2018-09-21T02:13:39.092Z,22.50
2018-09-21T02:16:06.748Z,22.30
2018-09-21T02:18:35.559Z,22.40
2018-09-21T02:21:03.258Z,22.40
2018-09-21T02:23:30.819Z,22.40
2018-09-21T02:25:58.412Z,22.40
2018-09-21T02:28:27.409Z,22.30
2018-09-21T02:30:58.190Z,22.30
2018-09-21T02:33:25.997Z,22.40
2018-09-21T02:35:53.654Z,22.40
2018-09-21T02:38:21.246Z,22.40
2018-09-21T02:41:00.975Z,22.30
2018-09-21T02:43:28.832Z,22.20
2018-09-21T02:45:56.493Z,22.20
2018-09-21T02:48:24.290Z,22.30
2018-09-21T02:50:52.157Z,22.30
2018-09-21T02:53:19.983Z,22.30
2018-09-21T02:55:47.861Z,22.20
2018-09-21T02:58:16.367Z,22.20
2018-09-21T03:00:44.304Z,22.20
2018-09-21T03:03:12.086Z,22.20
2018-09-21T03:05:39.865Z,22.20
2018-09-21T03:08:07.566Z,22.20
2018-09-21T03:10:35.438Z,22.20
2018-09-21T03:13:03.456Z,21.70
2018-09-21T03:15:31.136Z,22.30
2018-09-21T03:17:59.079Z,22.30
2018-09-21T03:20:26.894Z,22.30
2018-09-21T03:22:54.708Z,22.30
2018-09-21T03:25:22.590Z,22.30
2018-09-21T03:27:50.529Z,22.30
2018-09-21T03:30:18.326Z,22.30
2018-09-21T03:32:46.442Z,22.30
2018-09-21T03:35:14.251Z,22.30
2018-09-21T03:37:42.113Z,22.30
2018-09-21T03:40:09.986Z,22.30
2018-09-21T03:42:37.723Z,22.30
2018-09-21T03:45:05.903Z,22.30
2018-09-21T03:47:33.616Z,22.30
2018-09-21T03:50:01.562Z,22.30
2018-09-21T03:52:30.352Z,22.30
2018-09-21T03:54:58.205Z,22.30
2018-09-21T03:57:26.037Z,22.30
2018-09-21T03:59:53.883Z,22.30
2018-09-21T04:02:21.775Z,22.20
2018-09-21T04:04:49.563Z,22.20
2018-09-21T04:07:17.419Z,22.20
2018-09-21T04:09:45.097Z,22.20
2018-09-21T04:12:13.101Z,22.30
2018-09-21T04:14:42.518Z,22.30
2018-09-21T04:17:10.424Z,22.30
2018-09-21T04:19:38.117Z,22.30
2018-09-21T04:22:06.114Z,22.30
2018-09-21T04:24:33.924Z,22.40
2018-09-21T04:27:04.592Z,22.50
2018-09-21T04:29:32.422Z,22.50
2018-09-21T04:32:00.202Z,22.50
2018-09-21T04:34:27.901Z,22.60
2018-09-21T04:36:58.612Z,22.60
2018-09-21T04:39:26.456Z,22.60
2018-09-21T04:41:54.516Z,22.60
2018-09-21T04:44:22.295Z,22.60
2018-09-21T04:46:50.350Z,22.70
2018-09-21T04:49:18.144Z,22.80
2018-09-21T04:51:46.073Z,22.70
2018-09-21T04:54:13.923Z,22.70
2018-09-21T04:56:41.619Z,22.80
2018-09-21T04:59:09.477Z,22.80
2018-09-21T05:01:37.373Z,22.80
2018-09-21T05:04:05.359Z,22.80
2018-09-21T05:06:33.345Z,22.80
2018-09-21T05:09:01.307Z,22.80
2018-09-21T05:11:29.834Z,22.80
2018-09-21T05:13:57.662Z,22.50
2018-09-21T05:16:25.683Z,22.80
2018-09-21T05:18:53.417Z,22.80
2018-09-21T05:21:21.192Z,22.80
2018-09-21T05:23:52.467Z,22.90
2018-09-21T05:26:20.163Z,22.80
2018-09-21T05:28:48.448Z,22.90
2018-09-21T05:31:16.419Z,22.80
2018-09-21T05:33:44.511Z,22.80
2018-09-21T05:36:12.344Z,22.80
2018-09-21T05:38:40.168Z,22.80
2018-09-21T05:41:07.921Z,22.80
2018-09-21T05:43:35.933Z,22.80
2018-09-21T05:46:03.949Z,22.90
2018-09-21T05:48:31.930Z,22.90
2018-09-21T05:51:02.492Z,22.90
2018-09-21T05:53:30.761Z,22.90
2018-09-21T05:55:58.771Z,22.80
2018-09-21T05:58:26.654Z,22.80
2018-09-21T06:00:57.722Z,22.90
2018-09-21T06:03:25.690Z,22.80
2018-09-21T06:05:53.616Z,22.90
2018-09-21T06:08:21.367Z,22.80
2018-09-21T06:10:49.089Z,22.80
2018-09-21T06:13:16.961Z,22.80
2018-09-21T06:15:44.795Z,22.90
2018-09-21T06:18:12.772Z,22.80
2018-09-21T06:20:40.608Z,22.70
2018-09-21T06:23:08.416Z,22.80
2018-09-21T06:25:36.234Z,22.80
2018-09-21T06:28:05.255Z,22.90
2018-09-21T06:30:33.135Z,22.80
2018-09-21T06:33:01.002Z,22.90
2018-09-21T06:35:28.847Z,22.90
2018-09-21T06:37:56.613Z,22.90
2018-09-21T06:40:24.456Z,22.90
2018-09-21T06:42:57.449Z,23.00
2018-09-21T06:45:25.529Z,22.90
2018-09-21T06:48:24.468Z,23.00
2018-09-21T06:50:55.782Z,22.90
2018-09-21T06:53:23.683Z,22.90
2018-09-21T06:55:51.934Z,23.00
2018-09-21T06:58:20.524Z,23.00
2018-09-21T07:00:48.425Z,22.90
2018-09-21T07:03:16.275Z,22.80
2018-09-21T07:05:44.131Z,22.90
2018-09-21T07:08:12.130Z,22.80
2018-09-21T07:10:40.098Z,22.70
2018-09-21T07:13:07.807Z,22.70
2018-09-21T07:15:35.586Z,22.70
2018-09-21T07:18:03.419Z,22.70
2018-09-21T07:20:31.271Z,22.80
2018-09-21T07:22:59.159Z,22.60
2018-09-21T07:25:26.993Z,22.80
2018-09-21T07:27:54.692Z,22.80
2018-09-21T07:30:24.516Z,22.80
2018-09-21T07:32:52.278Z,22.70
2018-09-21T07:35:20.116Z,22.80
2018-09-21T07:37:47.955Z,22.80
2018-09-21T07:40:15.782Z,22.80
2018-09-21T07:42:46.295Z,22.90
2018-09-21T07:45:14.205Z,22.80
2018-09-21T07:47:41.953Z,22.70
2018-09-21T07:50:09.606Z,22.70
2018-09-21T07:52:37.202Z,22.70
2018-09-21T07:55:04.851Z,22.60
2018-09-21T07:57:34.424Z,22.30
2018-09-21T08:00:02.330Z,22.80
2018-09-21T08:02:30.206Z,22.80
2018-09-21T08:04:58.009Z,22.80
2018-09-21T08:07:25.580Z,22.80
2018-09-21T08:09:58.089Z,22.70
2018-09-21T08:12:25.693Z,22.60
2018-09-21T08:14:53.268Z,22.70
2018-09-21T08:17:20.859Z,22.70
2018-09-21T08:19:48.550Z,22.70
2018-09-21T08:22:20.853Z,22.60
2018-09-21T08:24:48.471Z,22.60
2018-09-21T08:27:17.797Z,22.60
2018-09-21T08:29:45.442Z,22.60
2018-09-21T08:32:13.230Z,22.70
2018-09-21T08:34:45.699Z,22.80
2018-09-21T08:37:13.360Z,22.80
2018-09-21T08:39:41.046Z,23.10
2018-09-21T08:42:08.672Z,22.80
2018-09-21T08:44:36.318Z,22.60
2018-09-21T08:47:08.747Z,22.60
2018-09-21T08:49:36.509Z,22.50
2018-09-21T08:52:04.159Z,22.40
2018-09-21T08:54:31.782Z,22.50
2018-09-21T08:56:59.469Z,22.50
2018-09-21T08:59:27.097Z,22.40
2018-09-21T09:01:57.538Z,22.20
2018-09-21T09:04:25.212Z,22.00
2018-09-21T09:06:52.809Z,21.70
2018-09-21T09:09:20.497Z,21.20
2018-09-21T09:11:48.142Z,20.70
2018-09-21T09:14:20.927Z,20.40
2018-09-21T09:16:48.600Z,20.00
2018-09-21T09:19:16.312Z,19.80
2018-09-21T09:21:43.911Z,19.50
2018-09-21T09:24:11.507Z,19.10
2018-09-21T09:26:43.973Z,18.60
2018-09-21T09:29:11.622Z,18.00
2018-09-21T09:31:39.242Z,17.50
2018-09-21T09:34:07.208Z,17.20
2018-09-21T09:36:34.867Z,16.80
2018-09-21T09:39:07.560Z,16.60
2018-09-21T09:41:35.197Z,16.40
2018-09-21T09:44:02.900Z,16.40
2018-09-21T09:46:31.396Z,16.40
2018-09-21T09:48:59.077Z,16.30
2018-09-21T09:51:26.831Z,16.00
2018-09-21T09:53:56.091Z,16.20
2018-09-21T09:56:23.701Z,16.10
2018-09-21T09:58:51.342Z,15.90
2018-09-21T10:01:19.071Z,15.80
2018-09-21T10:03:46.766Z,15.80
2018-09-21T10:06:14.321Z,15.80
2018-09-21T10:08:44.321Z,15.90
2018-09-21T10:11:11.942Z,16.00
2018-09-21T10:13:39.516Z,15.80
2018-09-21T10:16:07.172Z,15.70
2018-09-21T10:18:34.874Z,15.70
2018-09-21T10:21:02.648Z,15.70
2018-09-21T10:23:32.312Z,15.80
2018-09-21T10:25:59.972Z,15.90
2018-09-21T10:28:27.728Z,15.80
2018-09-21T10:30:55.275Z,15.70
2018-09-21T10:33:22.890Z,15.70
2018-09-21T10:35:50.492Z,15.60
2018-09-21T10:38:21.157Z,15.50
2018-09-21T10:40:48.734Z,15.60
2018-09-21T10:43:16.451Z,15.60
2018-09-21T10:45:44.055Z,15.70
2018-09-21T10:48:11.656Z,15.70
2018-09-21T10:50:39.605Z,15.70
2018-09-21T10:53:08.252Z,15.70
2018-09-21T10:55:36.293Z,15.80
2018-09-21T10:58:04.004Z,15.80
2018-09-21T11:00:31.935Z,15.60
2018-09-21T11:02:59.543Z,15.90
2018-09-21T11:05:31.314Z,16.00
2018-09-21T11:07:58.911Z,16.00
2018-09-21T11:10:26.497Z,16.00
2018-09-21T11:12:54.135Z,16.20
2018-09-21T11:15:22.096Z,16.40
2018-09-21T11:17:54.712Z,16.50
2018-09-21T11:20:22.317Z,16.50
2018-09-21T11:22:49.912Z,16.40
2018-09-21T11:25:17.581Z,16.30
2018-09-21T11:27:45.253Z,16.30
2018-09-21T11:30:17.580Z,16.40
2018-09-21T11:32:45.204Z,16.40
2018-09-21T11:35:12.846Z,16.40
2018-09-21T11:37:40.509Z,16.50
2018-09-21T11:40:08.213Z,16.00
2018-09-21T11:42:40.969Z,16.50
2018-09-21T11:45:08.580Z,16.50
2018-09-21T11:47:36.460Z,16.60
2018-09-21T11:50:04.312Z,16.80
2018-09-21T11:52:32.114Z,16.80
2018-09-21T11:55:04.189Z,16.80
2018-09-21T11:57:31.861Z,16.90
2018-09-21T11:59:59.599Z,17.00
2018-09-21T12:02:27.283Z,17.00
2018-09-21T12:04:54.916Z,17.00
2018-09-21T12:07:27.330Z,17.10
2018-09-21T12:09:54.902Z,17.10
2018-09-21T12:12:22.572Z,17.10
2018-09-21T12:14:50.249Z,17.10
2018-09-21T12:17:17.887Z,17.10
2018-09-21T12:22:18.180Z,17.10
2018-09-21T12:24:45.749Z,17.10
2018-09-21T12:27:13.418Z,17.10
2018-09-21T12:29:41.086Z,17.00
2018-09-21T12:32:08.704Z,17.10
2018-09-21T12:34:38.627Z,17.10
2018-09-21T12:37:06.569Z,17.20
2018-09-21T12:39:34.224Z,17.30
2018-09-21T12:42:01.999Z,17.40
2018-09-21T12:44:29.608Z,17.30
2018-09-21T12:46:57.253Z,17.30
2018-09-21T12:49:32.398Z,17.30
2018-09-21T12:52:00.091Z,17.20
2018-09-21T12:54:27.668Z,17.10
2018-09-21T12:56:55.301Z,17.10
2018-09-21T12:59:22.901Z,17.10
2018-09-21T13:01:55.144Z,17.20
2018-09-21T13:04:22.760Z,17.10
2018-09-21T13:06:50.377Z,17.10
2018-09-21T13:09:18.018Z,17.10
2018-09-21T13:11:45.631Z,17.10
2018-09-21T13:14:13.220Z,17.20
2018-09-21T13:16:45.898Z,17.30
2018-09-21T13:19:13.570Z,17.30
2018-09-21T13:21:41.287Z,17.20
2018-09-21T13:24:08.881Z,17.10
2018-09-21T13:26:36.536Z,17.10
2018-09-21T13:29:09.154Z,17.10
2018-09-21T13:31:36.767Z,17.10
2018-09-21T13:34:04.440Z,17.20
2018-09-21T13:36:32.116Z,17.30
2018-09-21T13:38:59.813Z,17.40
2018-09-21T13:41:27.521Z,17.20
2018-09-21T13:43:57.925Z,17.20
2018-09-21T13:46:25.569Z,17.30
2018-09-21T13:48:53.163Z,17.30
2018-09-21T13:51:20.783Z,17.30
2018-09-21T13:53:48.880Z,16.80
2018-09-21T13:56:16.525Z,17.00
2018-09-21T13:58:44.172Z,16.90
2018-09-21T14:01:11.819Z,16.90
2018-09-21T14:03:40.020Z,16.90
2018-09-21T14:06:09.960Z,17.00
2018-09-21T14:08:37.561Z,17.10
2018-09-21T14:11:05.459Z,17.10
2018-09-21T14:13:33.237Z,17.10
2018-09-21T14:16:01.180Z,17.10
2018-09-21T14:18:28.934Z,17.20
2018-09-21T14:20:56.657Z,17.40
2018-09-21T14:23:24.356Z,17.30
2018-09-21T14:25:52.028Z,17.20
2018-09-21T14:28:19.723Z,17.20
2018-09-21T14:30:47.499Z,17.20
2018-09-21T14:33:15.308Z,17.10
2018-09-21T14:35:42.927Z,17.20
2018-09-21T14:38:10.549Z,17.40
2018-09-21T14:40:38.184Z,17.50
2018-09-21T14:43:05.855Z,17.50
2018-09-21T14:45:33.580Z,17.40
2018-09-21T14:48:01.552Z,17.40
2018-09-21T14:50:29.224Z,17.50
2018-09-21T14:52:57.108Z,17.50
2018-09-21T14:55:24.856Z,17.50
2018-09-21T14:57:52.473Z,17.60
2018-09-21T15:00:20.147Z,17.50
2018-09-21T15:02:47.840Z,17.60
2018-09-21T15:05:15.596Z,17.70
2018-09-21T15:07:43.210Z,17.60
2018-09-21T15:10:10.959Z,17.70
2018-09-21T15:12:38.580Z,17.70
2018-09-21T15:15:06.484Z,17.70
2018-09-21T15:17:34.266Z,17.60
2018-09-21T15:20:02.112Z,17.40
2018-09-21T15:22:29.898Z,17.50
2018-09-21T15:24:57.625Z,17.50
2018-09-21T15:27:25.293Z,17.40
2018-09-21T15:29:52.946Z,17.50
2018-09-21T15:32:20.696Z,17.60
2018-09-21T15:34:48.380Z,17.60
2018-09-21T15:37:16.026Z,17.50
2018-09-21T15:39:43.761Z,17.50
2018-09-21T15:42:11.738Z,17.60
2018-09-21T15:44:39.397Z,17.70
2018-09-21T15:47:07.105Z,17.70
2018-09-21T15:49:34.742Z,17.70
2018-09-21T15:52:02.495Z,17.70
2018-09-21T15:54:30.183Z,17.70
2018-09-21T15:56:57.869Z,17.50
2018-09-21T15:59:25.507Z,17.50
2018-09-21T16:01:54.487Z,17.40
2018-09-21T16:04:23.260Z,17.30
2018-09-21T16:06:50.912Z,17.30
2018-09-21T16:09:18.676Z,17.20
2018-09-21T16:11:46.400Z,17.20
2018-09-21T16:14:24.949Z,17.20
2018-09-21T16:16:52.597Z,17.10
2018-09-21T16:19:20.243Z,17.20
2018-09-21T16:21:48.079Z,17.10
2018-09-21T16:24:19.782Z,17.00
2018-09-21T16:26:47.433Z,17.00
2018-09-21T16:29:15.060Z,17.00
2018-09-21T16:31:42.825Z,17.10
2018-09-21T16:34:38.980Z,17.00
2018-09-21T16:37:10.099Z,17.00
2018-09-21T16:40:04.412Z,17.00
2018-09-21T16:42:39.644Z,17.00
2018-09-21T16:45:07.666Z,16.90
2018-09-21T16:47:35.480Z,16.80
2018-09-21T16:50:03.835Z,16.80
2018-09-21T16:52:31.868Z,16.80
2018-09-21T16:55:01.504Z,16.70
2018-09-21T16:57:29.456Z,16.60
2018-09-21T16:59:57.430Z,16.60
2018-09-21T17:02:25.738Z,16.60
2018-09-21T17:04:53.896Z,16.10
2018-09-21T17:07:24.811Z,16.60
2018-09-21T17:09:52.676Z,16.60
2018-09-21T17:12:20.654Z,16.60
2018-09-21T17:14:49.890Z,16.60
2018-09-21T17:17:23.089Z,16.40
2018-09-21T17:20:03.968Z,16.40
2018-09-21T17:22:31.832Z,16.40
2018-09-21T17:24:59.795Z,16.30
2018-09-21T17:27:27.798Z,16.30
2018-09-21T17:29:55.646Z,16.30
2018-09-21T17:32:23.504Z,16.20
2018-09-21T17:34:52.712Z,16.20
2018-09-21T17:37:22.915Z,16.20
2018-09-21T17:39:50.818Z,16.10
2018-09-21T17:42:18.668Z,16.00
2018-09-21T17:44:50.591Z,16.00
2018-09-21T17:47:18.482Z,16.00
2018-09-21T17:49:46.125Z,15.90
2018-09-21T17:52:14.083Z,15.90
2018-09-21T17:54:41.707Z,15.90
2018-09-21T17:57:09.386Z,15.80
2018-09-21T17:59:37.077Z,15.80
2018-09-21T18:02:04.765Z,15.70
2018-09-21T18:04:32.480Z,15.70
2018-09-21T18:07:00.217Z,15.70
2018-09-21T18:09:27.838Z,15.60
2018-09-21T18:11:55.621Z,15.60
2018-09-21T18:14:23.297Z,15.70
2018-09-21T18:16:50.986Z,15.80
2018-09-21T18:19:18.998Z,15.70
2018-09-21T18:21:46.600Z,15.70
2018-09-21T18:24:14.362Z,15.60
2018-09-21T18:26:42.097Z,15.60
2018-09-21T18:29:10.535Z,15.60
2018-09-21T18:31:38.257Z,15.60
2018-09-21T18:34:05.892Z,15.60
2018-09-21T18:36:33.818Z,15.60
2018-09-21T18:39:01.924Z,16.10
2018-09-21T18:41:29.487Z,15.60
2018-09-21T18:43:57.681Z,15.60
2018-09-21T18:46:25.421Z,15.50
2018-09-21T18:48:53.111Z,15.60
2018-09-21T18:51:24.099Z,15.60
2018-09-21T18:53:52.167Z,15.50
2018-09-21T18:56:19.769Z,15.50
2018-09-21T18:58:47.474Z,15.40
2018-09-21T19:01:15.240Z,15.40
2018-09-21T19:03:42.953Z,15.40
2018-09-21T19:06:10.607Z,15.40
2018-09-21T19:08:38.282Z,15.30
2018-09-21T19:11:06.088Z,15.30
2018-09-21T19:13:33.700Z,15.30
2018-09-21T19:16:01.374Z,15.30
2018-09-21T19:18:29.095Z,15.30
2018-09-21T19:20:56.778Z,15.30
2018-09-21T19:23:24.476Z,15.40
2018-09-21T19:25:52.205Z,15.50
2018-09-21T19:28:19.955Z,15.50
2018-09-21T19:30:47.631Z,15.50
2018-09-21T19:33:15.462Z,15.50
2018-09-21T19:35:43.190Z,15.50
2018-09-21T19:38:10.895Z,15.60
2018-09-21T19:40:38.666Z,15.60
2018-09-21T19:43:07.500Z,15.50
2018-09-21T19:45:35.598Z,15.40
2018-09-21T19:48:03.577Z,15.40
2018-09-21T19:50:31.852Z,15.40
2018-09-21T19:53:01.162Z,15.40
2018-09-21T19:55:28.969Z,15.30
2018-09-21T19:57:56.924Z,15.30
2018-09-21T20:00:24.989Z,15.30
2018-09-21T20:02:53.403Z,15.30
2018-09-21T20:05:24.227Z,15.30
2018-09-21T20:07:52.102Z,15.40
2018-09-21T20:10:20.071Z,15.40
2018-09-21T20:12:48.170Z,15.40
2018-09-21T20:15:15.948Z,15.30
2018-09-21T20:17:43.885Z,15.30
2018-09-21T20:20:11.904Z,15.30
2018-09-21T20:22:39.688Z,15.40
2018-09-21T20:25:07.575Z,15.30
2018-09-21T20:27:35.648Z,15.30
2018-09-21T20:30:09.288Z,15.30
2018-09-21T20:32:42.836Z,15.20
2018-09-21T20:35:10.599Z,15.20
2018-09-21T20:37:38.690Z,15.10
2018-09-21T20:40:06.531Z,15.10
2018-09-21T20:42:34.536Z,15.10
2018-09-21T20:45:02.176Z,14.70
2018-09-21T20:47:30.004Z,15.00
2018-09-21T20:49:57.700Z,15.00
2018-09-21T20:52:25.391Z,15.10
2018-09-21T20:54:53.038Z,15.10
2018-09-21T20:57:20.673Z,15.10
2018-09-21T20:59:48.778Z,15.20
2018-09-21T21:02:16.374Z,15.20
2018-09-21T21:04:44.018Z,15.10
2018-09-21T21:07:11.838Z,15.20
2018-09-21T21:09:39.472Z,15.20
2018-09-21T21:12:07.112Z,15.20
2018-09-21T21:14:34.782Z,15.20
2018-09-21T21:17:02.516Z,15.10
2018-09-21T21:19:30.175Z,15.10
2018-09-21T21:21:58.002Z,15.00
2018-09-21T21:24:25.673Z,15.10
2018-09-21T21:26:53.963Z,14.90
2018-09-21T21:29:21.704Z,14.90
2018-09-21T21:31:49.375Z,14.80
2018-09-21T21:34:17.504Z,14.80
2018-09-21T21:36:45.110Z,14.80
2018-09-21T21:39:13.748Z,14.80
2018-09-21T21:41:41.984Z,14.70
2018-09-21T21:44:09.793Z,14.80
2018-09-21T21:46:37.382Z,14.70
2018-09-21T21:49:05.290Z,14.80
2018-09-21T21:51:32.799Z,14.70
2018-09-21T21:54:00.849Z,14.70
2018-09-21T21:56:28.568Z,14.80
2018-09-21T21:58:56.268Z,14.80
2018-09-21T22:01:29.724Z,14.70
2018-09-21T22:03:57.748Z,14.70
2018-09-21T22:06:25.474Z,14.70
2018-09-21T22:08:53.172Z,14.70
2018-09-21T22:11:26.525Z,14.60
2018-09-21T22:14:00.049Z,14.70
2018-09-21T22:16:27.813Z,14.60
2018-09-21T22:18:55.486Z,14.50
2018-09-21T22:21:23.551Z,14.60
2018-09-21T22:23:51.241Z,14.50
2018-09-21T22:26:19.093Z,14.40
2018-09-21T22:28:46.768Z,14.50
2018-09-21T22:31:14.427Z,14.50
2018-09-21T22:33:42.014Z,14.50
2018-09-21T22:36:11.791Z,14.50
2018-09-21T22:38:39.762Z,14.40
2018-09-21T22:41:07.513Z,14.40
2018-09-21T22:43:35.176Z,14.30
2018-09-21T22:46:02.857Z,14.30
2018-09-21T22:48:30.606Z,14.30
2018-09-21T22:50:58.227Z,14.30
2018-09-21T22:53:25.868Z,14.30
2018-09-21T22:55:53.562Z,14.40
2018-09-21T22:58:21.170Z,14.40
2018-09-21T23:00:48.771Z,14.50
2018-09-21T23:03:16.376Z,14.50
2018-09-21T23:05:43.965Z,14.50
2018-09-21T23:08:11.569Z,14.50
2018-09-21T23:10:39.179Z,14.50
2018-09-21T23:13:06.785Z,14.50
2018-09-21T23:15:34.516Z,14.50
2018-09-21T23:18:02.327Z,14.50
2018-09-21T23:20:29.935Z,14.40
2018-09-21T23:22:57.584Z,14.30
2018-09-21T23:25:25.211Z,14.40
2018-09-21T23:27:52.933Z,14.50
2018-09-21T23:30:20.571Z,14.40
2018-09-21T23:32:48.215Z,14.50
2018-09-21T23:35:15.878Z,14.60
2018-09-21T23:37:43.492Z,14.40
2018-09-21T23:40:11.159Z,14.30
2018-09-21T23:42:39.089Z,14.00
2018-09-21T23:45:06.974Z,13.90
2018-09-21T23:47:34.807Z,13.80
2018-09-21T23:50:02.725Z,13.70
2018-09-21T23:52:30.556Z,13.80
2018-09-21T23:54:58.248Z,13.90
2018-09-21T23:57:25.887Z,13.80
2018-09-21T23:59:53.596Z,13.90
